Coeur D'Alene - Pappy Boyington Field
KCOE : now visible

Airfield :











YOU CAN JOIN US ON...

 
LOGIN :

Register | Disclaimer

   EN    FR    IT 

 









Legend :    VFR   Marginal VFR   IFR   Intensive IFR   Very Intensive IFR
Visi :
Ceiling :
>= 8 km
>= 3000ft
5 to 8 km
1000 to 3000 ft
1500m to 5 km
500 to 1000 ft
800 to 1500m
200 to 500 ft
< 800m
< 200 ft
Symbols :   Thunderstorms  Fog  Heavy snow  Heavy precipitations  Wind > 20 kt







- Airport Elevation : 2320 ft


KCOE - Coeur D'Alene - Pappy Boyington Field

CURRENT METAR :
  • 222356Z AUTO 16008KT 10SM CLR 22/13 A2996 RMK AO2 SLP148 60007 T02220133 10228 20172 56008

EXPIRED METARs :
  • 222256Z AUTO 14008KT 10SM CLR 22/13 A2997 RMK AO2 SLP152 T02170133
  • 222156Z AUTO 15009KT 10SM FEW026 21/14 A2997 RMK AO2 SLP153 T02110139

TAF KCOE
Valid from the 23 at 00:00 until the 24 at 00:00 UTC


222326Z 2300/2324 14008KT P6SM FEW200
FM230400 VRB03KT P6SM FEW250
FM232100 23007KT P6SM SCT200
No reported NOTAMs for that airfield.



MET'MAP, your aeronautical weather chart ! - Copyright ORBIFLY December 2007 - Disclaimer

ORBIFLY MET'MAP TEAM :

Programming & Development : Alexandra Zaïnal
Concept & Development : Baudouin d'Aumeries
Co-Development & Prog : Marc-Olivier Méhu
Technical & hardware support : Manuel Goepfert

Contact : metmap@orbifly.com




SOURCES & CREDITS :

   NOAA       Earth
Advisory